sim
Sign-in with your pilot id or email,
or register
Callsign
Passwort

Schedule Details

Flight Number: DLH2712 (2)
Departure: Munich Airport (EDDM) at 05:10
Arrival: Hamburg Airport (EDDH) at 06:30
Route: Lufthansa Passenger Schedule. Enter filed route here before submitting Pirep.

Weather Information
Getting current METAR information for EDDM 181350Z 09011KT 050V120 CAVOK 19/10 Q1024 NOSIG
Getting current METAR information for EDDH 181350Z 11008KT 070V150 CAVOK 19/04 Q1028 NOSIG

Schedule Frequency

Route Map